• Join FlightAware (Why Join?)
  • Login
  • US Flag 
12:42PM EDT


 

Airport Tracker/Info


-or-


 

Live Flight TrackerFlight Track Log ✈ KAP2826 ✈ 03-May-2013 ✈ KHYA - KACK

Flight Track Log - Related Links

Times and Time Zones

All times are in EDT time to prevent confusion due to time zone crossing. See the KAP2826 flight status page for this flight to view local times or setup timezone preferences in your user account.

Time Position Orientation Groundspeed Altitude Reporting Facility
EDT Latitude Longitude Course Direction KTS MPH feet Rate Location/Type
01:32PM 41.5407 -70.2037 159° South  Level FlightAware Approximate
01:33PM 41.5197 -70.1932 159° South  Level FlightAware Approximate
01:34PM 41.4987 -70.1827 159° South  Level FlightAware Approximate
01:35PM 41.4778 -70.1722 159° South  Level FlightAware Approximate
01:36PM 41.4570 -70.1609 156° South  Level FlightAware Approximate
01:37PM 41.4366 -70.1486 156° South  Level FlightAware Approximate
01:38PM 41.4162 -70.1364 156° South  Level FlightAware Approximate
01:39PM 41.3957 -70.1241 156° South  Level FlightAware Approximate
01:40PM 41.3751 -70.1125 159° South  Level FlightAware Approximate
01:41PM 41.3541 -70.1020 159° South  Level FlightAware Approximate
01:42PM 41.3331 -70.0916 159° South  Level FlightAware Approximate
01:43PM 41.3121 -70.0811 159° South  Level FlightAware Approximate
01:44PM 41.2912 -70.0706 159° South  Level FlightAware Approximate
01:45PM 41.2702 -70.0601 159° South  Level FlightAware Approximate
01:46PM 41.2500 -70.0500 159° South  Level FlightAware Approximate
01:47PM 41.2531 -70.0603 159° South  Level Estimated
01:48PM 41.2531 -70.0603 159° South  Level Estimated
01:49PM 41.2531 -70.0603 159° South  Level Estimated
01:50PM 41.2531 -70.0603 159° South  Level Estimated
01:51PM 41.2531 -70.0603 159° South  Level Estimated
01:52PM 41.2531 -70.0603 159° South  Level Estimated